sensor_id;sensor_type;location;lat;lon;timestamp;pressure;altitude;pressure_sealevel;temperature;humidity
74790;BME280;63318;52.406;13.416;2023-09-12T00:00:55;100809.98;;;17.26;69.91
74790;BME280;63318;52.406;13.416;2023-09-12T00:03:24;100811.80;;;17.23;70.18
74790;BME280;63318;52.406;13.416;2023-09-12T00:05:56;100814.17;;;17.19;70.30
74790;BME280;63318;52.406;13.416;2023-09-12T00:08:25;100812.10;;;17.17;70.51
74790;BME280;63318;52.406;13.416;2023-09-12T00:11:02;100812.25;;;17.13;70.57
74790;BME280;63318;52.406;13.416;2023-09-12T00:13:31;100816.64;;;17.10;70.85
74790;BME280;63318;52.406;13.416;2023-09-12T00:15:59;100816.87;;;17.07;70.79
74790;BME280;63318;52.406;13.416;2023-09-12T00:18:28;100821.14;;;17.05;70.68
74790;BME280;63318;52.406;13.416;2023-09-12T00:20:56;100819.23;;;17.02;70.62
74790;BME280;63318;52.406;13.416;2023-09-12T00:23:25;100816.04;;;17.00;70.81
74790;BME280;63318;52.406;13.416;2023-09-12T00:25:53;100817.83;;;16.97;70.97
74790;BME280;63318;52.406;13.416;2023-09-12T00:28:21;100820.77;;;16.94;70.95
74790;BME280;63318;52.406;13.416;2023-09-12T00:30:51;100818.64;;;16.91;71.00
74790;BME280;63318;52.406;13.416;2023-09-12T00:33:19;100819.38;;;16.88;71.17
74790;BME280;63318;52.406;13.416;2023-09-12T00:35:47;100820.58;;;16.85;71.27
74790;BME280;63318;52.406;13.416;2023-09-12T00:38:15;100818.63;;;16.82;71.49
74790;BME280;63318;52.406;13.416;2023-09-12T00:40:43;100817.96;;;16.79;71.53
74790;BME280;63318;52.406;13.416;2023-09-12T00:43:12;100817.63;;;16.76;71.41
74790;BME280;63318;52.406;13.416;2023-09-12T00:45:40;100819.58;;;16.74;71.44
74790;BME280;63318;52.406;13.416;2023-09-12T00:48:10;100821.51;;;16.71;71.62
74790;BME280;63318;52.406;13.416;2023-09-12T00:50:41;100818.14;;;16.68;71.73
74790;BME280;63318;52.406;13.416;2023-09-12T00:53:10;100820.39;;;16.65;71.78
74790;BME280;63318;52.406;13.416;2023-09-12T00:55:42;100820.03;;;16.63;71.77
74790;BME280;63318;52.406;13.416;2023-09-12T00:58:12;100816.11;;;16.61;71.77
74790;BME280;63318;52.406;13.416;2023-09-12T01:00:42;100814.36;;;16.58;71.84
74790;BME280;63318;52.406;13.416;2023-09-12T01:03:11;100812.52;;;16.55;72.00
74790;BME280;63318;52.406;13.416;2023-09-12T01:05:39;100814.27;;;16.52;72.17
74790;BME280;63318;52.406;13.416;2023-09-12T01:08:09;100814.85;;;16.50;72.08
74790;BME280;63318;52.406;13.416;2023-09-12T01:10:37;100815.59;;;16.48;72.31
74790;BME280;63318;52.406;13.416;2023-09-12T01:13:07;100815.05;;;16.46;72.48
74790;BME280;63318;52.406;13.416;2023-09-12T01:15:37;100811.05;;;16.43;72.30
74790;BME280;63318;52.406;13.416;2023-09-12T01:18:05;100810.70;;;16.42;72.33
74790;BME280;63318;52.406;13.416;2023-09-12T01:20:35;100806.79;;;16.40;72.47
74790;BME280;63318;52.406;13.416;2023-09-12T01:23:31;100808.55;;;16.39;72.32
74790;BME280;63318;52.406;13.416;2023-09-12T01:26:20;100809.49;;;16.37;72.72
74790;BME280;63318;52.406;13.416;2023-09-12T01:28:52;100808.30;;;16.36;72.89
74790;BME280;63318;52.406;13.416;2023-09-12T01:31:25;100809.96;;;16.33;72.66
74790;BME280;63318;52.406;13.416;2023-09-12T01:33:57;100810.84;;;16.32;72.64
74790;BME280;63318;52.406;13.416;2023-09-12T01:36:30;100813.79;;;16.30;72.70
74790;BME280;63318;52.406;13.416;2023-09-12T01:38:58;100813.48;;;16.28;72.85
74790;BME280;63318;52.406;13.416;2023-09-12T01:41:27;100813.87;;;16.26;72.88
74790;BME280;63318;52.406;13.416;2023-09-12T01:44:00;100810.61;;;16.24;72.90
74790;BME280;63318;52.406;13.416;2023-09-12T01:46:30;100815.30;;;16.22;73.00
74790;BME280;63318;52.406;13.416;2023-09-12T01:49:00;100812.99;;;16.19;73.15
74790;BME280;63318;52.406;13.416;2023-09-12T01:51:30;100814.88;;;16.18;73.44
74790;BME280;63318;52.406;13.416;2023-09-12T01:53:59;100814.15;;;16.15;73.33
74790;BME280;63318;52.406;13.416;2023-09-12T01:56:28;100810.39;;;16.12;73.43
74790;BME280;63318;52.406;13.416;2023-09-12T01:58:58;100807.31;;;16.09;73.35
74790;BME280;63318;52.406;13.416;2023-09-12T02:01:26;100807.02;;;16.07;73.43
74790;BME280;63318;52.406;13.416;2023-09-12T02:03:54;100810.48;;;16.05;73.34
74790;BME280;63318;52.406;13.416;2023-09-12T02:06:23;100806.36;;;16.03;73.49
74790;BME280;63318;52.406;13.416;2023-09-12T02:08:51;100805.79;;;16.01;73.60
74790;BME280;63318;52.406;13.416;2023-09-12T02:11:19;100802.84;;;15.98;73.47
74790;BME280;63318;52.406;13.416;2023-09-12T02:13:47;100796.66;;;15.97;73.68
74790;BME280;63318;52.406;13.416;2023-09-12T02:16:15;100793.95;;;15.94;73.87
74790;BME280;63318;52.406;13.416;2023-09-12T02:18:44;100795.14;;;15.91;73.69
74790;BME280;63318;52.406;13.416;2023-09-12T02:21:12;100794.23;;;15.89;73.85
74790;BME280;63318;52.406;13.416;2023-09-12T02:23:40;100792.20;;;15.87;73.74
74790;BME280;63318;52.406;13.416;2023-09-12T02:26:08;100791.67;;;15.85;73.86
74790;BME280;63318;52.406;13.416;2023-09-12T02:28:36;100792.45;;;15.83;74.04
74790;BME280;63318;52.406;13.416;2023-09-12T02:31:05;100793.59;;;15.81;73.89
74790;BME280;63318;52.406;13.416;2023-09-12T02:33:37;100796.04;;;15.79;74.13
74790;BME280;63318;52.406;13.416;2023-09-12T02:36:06;100792.54;;;15.77;74.23
74790;BME280;63318;52.406;13.416;2023-09-12T02:38:35;100795.79;;;15.75;74.21
74790;BME280;63318;52.406;13.416;2023-09-12T02:41:03;100795.19;;;15.73;74.32
74790;BME280;63318;52.406;13.416;2023-09-12T02:43:31;100796.59;;;15.71;74.18
74790;BME280;63318;52.406;13.416;2023-09-12T02:45:59;100793.48;;;15.69;74.29
74790;BME280;63318;52.406;13.416;2023-09-12T02:48:27;100790.44;;;15.66;74.22
74790;BME280;63318;52.406;13.416;2023-09-12T02:50:55;100788.90;;;15.64;74.25
74790;BME280;63318;52.406;13.416;2023-09-12T02:53:24;100788.83;;;15.63;74.29
74790;BME280;63318;52.406;13.416;2023-09-12T02:55:52;100784.98;;;15.62;74.59
74790;BME280;63318;52.406;13.416;2023-09-12T02:58:21;100785.51;;;15.60;74.61
74790;BME280;63318;52.406;13.416;2023-09-12T03:00:49;100786.44;;;15.58;74.51
74790;BME280;63318;52.406;13.416;2023-09-12T03:03:17;100782.27;;;15.57;74.57
74790;BME280;63318;52.406;13.416;2023-09-12T03:05:45;100782.36;;;15.54;74.45
74790;BME280;63318;52.406;13.416;2023-09-12T03:08:13;100784.48;;;15.54;74.47
74790;BME280;63318;52.406;13.416;2023-09-12T03:10:42;100783.50;;;15.54;74.63
74790;BME280;63318;52.406;13.416;2023-09-12T03:13:12;100778.38;;;15.52;74.71
74790;BME280;63318;52.406;13.416;2023-09-12T03:15:40;100776.42;;;15.51;75.03
74790;BME280;63318;52.406;13.416;2023-09-12T03:18:11;100776.85;;;15.49;75.00
74790;BME280;63318;52.406;13.416;2023-09-12T03:20:40;100776.05;;;15.48;74.86
74790;BME280;63318;52.406;13.416;2023-09-12T03:23:08;100776.51;;;15.47;74.89
74790;BME280;63318;52.406;13.416;2023-09-12T03:25:38;100778.44;;;15.45;74.94
74790;BME280;63318;52.406;13.416;2023-09-12T03:28:07;100775.80;;;15.43;75.15
74790;BME280;63318;52.406;13.416;2023-09-12T03:30:36;100775.28;;;15.42;75.20
74790;BME280;63318;52.406;13.416;2023-09-12T03:33:06;100770.33;;;15.39;75.21
74790;BME280;63318;52.406;13.416;2023-09-12T03:35:34;100774.84;;;15.37;75.31
74790;BME280;63318;52.406;13.416;2023-09-12T03:38:03;100774.75;;;15.36;75.20
74790;BME280;63318;52.406;13.416;2023-09-12T03:40:31;100778.25;;;15.34;75.32
74790;BME280;63318;52.406;13.416;2023-09-12T03:42:59;100780.08;;;15.32;75.38
74790;BME280;63318;52.406;13.416;2023-09-12T03:45:28;100781.00;;;15.30;75.37
74790;BME280;63318;52.406;13.416;2023-09-12T03:47:56;100782.20;;;15.28;75.32
74790;BME280;63318;52.406;13.416;2023-09-12T03:50:24;100782.12;;;15.27;75.36
74790;BME280;63318;52.406;13.416;2023-09-12T03:52:52;100782.81;;;15.25;75.46
74790;BME280;63318;52.406;13.416;2023-09-12T03:55:20;100785.13;;;15.24;75.42
74790;BME280;63318;52.406;13.416;2023-09-12T03:57:48;100790.02;;;15.23;75.44
74790;BME280;63318;52.406;13.416;2023-09-12T04:00:17;100792.90;;;15.21;75.66
74790;BME280;63318;52.406;13.416;2023-09-12T04:02:46;100789.50;;;15.19;75.86
74790;BME280;63318;52.406;13.416;2023-09-12T04:05:15;100789.98;;;15.18;75.72
74790;BME280;63318;52.406;13.416;2023-09-12T04:07:43;100792.23;;;15.17;75.73
74790;BME280;63318;52.406;13.416;2023-09-12T04:10:11;100792.15;;;15.16;75.70
74790;BME280;63318;52.406;13.416;2023-09-12T04:12:39;100794.79;;;15.15;75.58
74790;BME280;63318;52.406;13.416;2023-09-12T04:15:09;100795.80;;;15.14;75.83
74790;BME280;63318;52.406;13.416;2023-09-12T04:17:37;100799.23;;;15.14;76.10
74790;BME280;63318;52.406;13.416;2023-09-12T04:20:07;100797.41;;;15.12;76.10
74790;BME280;63318;52.406;13.416;2023-09-12T04:22:36;100799.10;;;15.11;76.08
74790;BME280;63318;52.406;13.416;2023-09-12T04:25:05;100797.52;;;15.10;76.09
74790;BME280;63318;52.406;13.416;2023-09-12T04:27:33;100797.29;;;15.09;76.11
74790;BME280;63318;52.406;13.416;2023-09-12T04:30:01;100796.17;;;15.08;76.00
74790;BME280;63318;52.406;13.416;2023-09-12T04:32:30;100799.20;;;15.08;76.10
74790;BME280;63318;52.406;13.416;2023-09-12T04:34:58;100799.89;;;15.07;76.09
74790;BME280;63318;52.406;13.416;2023-09-12T04:37:26;100800.01;;;15.07;76.00
74790;BME280;63318;52.406;13.416;2023-09-12T04:39:54;100799.78;;;15.07;75.99
74790;BME280;63318;52.406;13.416;2023-09-12T04:42:23;100795.43;;;15.06;76.04
74790;BME280;63318;52.406;13.416;2023-09-12T04:44:51;100798.85;;;15.06;75.99
74790;BME280;63318;52.406;13.416;2023-09-12T04:47:19;100796.05;;;15.06;76.06
74790;BME280;63318;52.406;13.416;2023-09-12T04:49:47;100796.66;;;15.06;76.01
74790;BME280;63318;52.406;13.416;2023-09-12T04:52:16;100792.11;;;15.07;75.94
74790;BME280;63318;52.406;13.416;2023-09-12T04:54:44;100795.39;;;15.08;76.16
74790;BME280;63318;52.406;13.416;2023-09-12T04:57:12;100796.05;;;15.08;76.08
74790;BME280;63318;52.406;13.416;2023-09-12T04:59:40;100798.80;;;15.10;76.36
74790;BME280;63318;52.406;13.416;2023-09-12T05:02:09;100797.08;;;15.12;76.45
74790;BME280;63318;52.406;13.416;2023-09-12T05:04:37;100798.17;;;15.14;76.45
74790;BME280;63318;52.406;13.416;2023-09-12T05:07:05;100801.55;;;15.15;76.41
74790;BME280;63318;52.406;13.416;2023-09-12T05:09:33;100804.42;;;15.18;76.34
74790;BME280;63318;52.406;13.416;2023-09-12T05:12:02;100805.12;;;15.20;76.29
74790;BME280;63318;52.406;13.416;2023-09-12T05:14:30;100807.60;;;15.23;76.43
74790;BME280;63318;52.406;13.416;2023-09-12T05:16:58;100814.10;;;15.25;76.73
74790;BME280;63318;52.406;13.416;2023-09-12T05:19:26;100817.30;;;15.29;76.67
74790;BME280;63318;52.406;13.416;2023-09-12T05:21:55;100814.61;;;15.32;76.96
74790;BME280;63318;52.406;13.416;2023-09-12T05:24:23;100814.61;;;15.36;77.18
74790;BME280;63318;52.406;13.416;2023-09-12T05:26:51;100818.18;;;15.41;77.24
74790;BME280;63318;52.406;13.416;2023-09-12T05:29:19;100819.36;;;15.45;77.28
74790;BME280;63318;52.406;13.416;2023-09-12T05:31:47;100819.57;;;15.50;77.11
74790;BME280;63318;52.406;13.416;2023-09-12T05:34:15;100822.69;;;15.54;76.96
74790;BME280;63318;52.406;13.416;2023-09-12T05:36:44;100824.78;;;15.60;76.95
74790;BME280;63318;52.406;13.416;2023-09-12T05:39:12;100827.34;;;15.66;76.83
74790;BME280;63318;52.406;13.416;2023-09-12T05:41:40;100824.81;;;15.73;76.68
74790;BME280;63318;52.406;13.416;2023-09-12T05:44:08;100819.13;;;15.81;76.52
74790;BME280;63318;52.406;13.416;2023-09-12T05:46:36;100817.36;;;15.90;76.40
74790;BME280;63318;52.406;13.416;2023-09-12T05:49:05;100819.00;;;16.01;76.53
74790;BME280;63318;52.406;13.416;2023-09-12T05:51:33;100819.88;;;16.11;76.31
74790;BME280;63318;52.406;13.416;2023-09-12T05:54:01;100825.73;;;16.24;76.20
74790;BME280;63318;52.406;13.416;2023-09-12T05:56:29;100830.17;;;16.38;76.08
74790;BME280;63318;52.406;13.416;2023-09-12T05:58:57;100825.65;;;16.51;76.03
74790;BME280;63318;52.406;13.416;2023-09-12T06:01:26;100825.19;;;16.67;76.01
74790;BME280;63318;52.406;13.416;2023-09-12T06:03:54;100827.02;;;16.83;75.99
74790;BME280;63318;52.406;13.416;2023-09-12T06:06:22;100827.09;;;17.00;75.74
74790;BME280;63318;52.406;13.416;2023-09-12T06:08:51;100828.45;;;17.16;76.11
74790;BME280;63318;52.406;13.416;2023-09-12T06:11:20;100829.60;;;17.34;76.25
74790;BME280;63318;52.406;13.416;2023-09-12T06:13:48;100829.15;;;17.52;76.30
74790;BME280;63318;52.406;13.416;2023-09-12T06:16:16;100831.02;;;17.70;75.99
74790;BME280;63318;52.406;13.416;2023-09-12T06:18:44;100827.50;;;17.86;76.22
74790;BME280;63318;52.406;13.416;2023-09-12T06:21:13;100826.30;;;18.03;76.00
74790;BME280;63318;52.406;13.416;2023-09-12T06:23:41;100829.14;;;18.21;75.38
74790;BME280;63318;52.406;13.416;2023-09-12T06:26:09;100831.45;;;18.37;74.89
74790;BME280;63318;52.406;13.416;2023-09-12T06:28:37;100837.29;;;18.54;74.99
74790;BME280;63318;52.406;13.416;2023-09-12T06:31:09;100834.85;;;18.72;74.44
74790;BME280;63318;52.406;13.416;2023-09-12T06:33:37;100840.78;;;18.91;73.80
74790;BME280;63318;52.406;13.416;2023-09-12T06:36:06;100835.34;;;19.08;72.68
74790;BME280;63318;52.406;13.416;2023-09-12T06:38:34;100842.96;;;19.27;71.71
74790;BME280;63318;52.406;13.416;2023-09-12T06:41:03;100843.31;;;19.47;71.53
74790;BME280;63318;52.406;13.416;2023-09-12T06:43:31;100846.66;;;19.67;70.71
74790;BME280;63318;52.406;13.416;2023-09-12T06:45:59;100843.09;;;19.87;70.23
74790;BME280;63318;52.406;13.416;2023-09-12T06:48:27;100840.53;;;20.07;69.59
74790;BME280;63318;52.406;13.416;2023-09-12T06:50:56;100847.70;;;20.29;69.09
74790;BME280;63318;52.406;13.416;2023-09-12T06:53:24;100848.31;;;20.48;69.18
74790;BME280;63318;52.406;13.416;2023-09-12T06:55:53;100845.16;;;20.68;68.85
74790;BME280;63318;52.406;13.416;2023-09-12T06:58:21;100847.24;;;20.90;68.69
74790;BME280;63318;52.406;13.416;2023-09-12T07:00:49;100843.31;;;21.09;67.07
74790;BME280;63318;52.406;13.416;2023-09-12T07:03:17;100849.94;;;21.29;66.49
74790;BME280;63318;52.406;13.416;2023-09-12T07:05:46;100853.70;;;21.48;65.94
74790;BME280;63318;52.406;13.416;2023-09-12T07:08:14;100856.27;;;21.69;65.83
74790;BME280;63318;52.406;13.416;2023-09-12T07:10:46;100859.13;;;21.88;65.19
74790;BME280;63318;52.406;13.416;2023-09-12T07:13:13;100861.98;;;22.08;64.57
74790;BME280;63318;52.406;13.416;2023-09-12T07:15:41;100861.89;;;22.25;63.76
74790;BME280;63318;52.406;13.416;2023-09-12T07:18:10;100856.48;;;22.46;63.94
74790;BME280;63318;52.406;13.416;2023-09-12T07:20:38;100855.02;;;22.66;63.51
74790;BME280;63318;52.406;13.416;2023-09-12T07:23:06;100857.16;;;22.86;62.85
74790;BME280;63318;52.406;13.416;2023-09-12T07:25:39;100851.98;;;23.06;62.60
74790;BME280;63318;52.406;13.416;2023-09-12T07:28:08;100847.52;;;23.25;62.08
74790;BME280;63318;52.406;13.416;2023-09-12T07:30:36;100848.64;;;23.43;61.77
74790;BME280;63318;52.406;13.416;2023-09-12T07:33:06;100844.91;;;23.63;60.92
74790;BME280;63318;52.406;13.416;2023-09-12T07:35:34;100847.69;;;23.82;60.64
74790;BME280;63318;52.406;13.416;2023-09-12T07:38:03;100842.35;;;23.99;60.80
74790;BME280;63318;52.406;13.416;2023-09-12T07:40:31;100839.27;;;24.19;60.20
74790;BME280;63318;52.406;13.416;2023-09-12T07:42:59;100834.58;;;24.39;60.47
74790;BME280;63318;52.406;13.416;2023-09-12T07:45:27;100833.45;;;24.58;59.90
74790;BME280;63318;52.406;13.416;2023-09-12T07:47:56;100832.73;;;24.76;58.30
74790;BME280;63318;52.406;13.416;2023-09-12T07:50:24;100832.11;;;24.97;58.29
74790;BME280;63318;52.406;13.416;2023-09-12T07:52:53;100832.70;;;25.18;58.26
74790;BME280;63318;52.406;13.416;2023-09-12T07:55:21;100836.39;;;25.36;57.50
74790;BME280;63318;52.406;13.416;2023-09-12T07:57:49;100836.36;;;25.55;57.68
74790;BME280;63318;52.406;13.416;2023-09-12T08:00:18;100836.27;;;25.74;57.10
74790;BME280;63318;52.406;13.416;2023-09-12T08:02:46;100836.33;;;25.91;57.22
74790;BME280;63318;52.406;13.416;2023-09-12T08:05:15;100828.17;;;26.09;56.66
74790;BME280;63318;52.406;13.416;2023-09-12T08:07:43;100828.96;;;26.28;55.80
74790;BME280;63318;52.406;13.416;2023-09-12T08:10:12;100831.67;;;26.47;54.10
74790;BME280;63318;52.406;13.416;2023-09-12T08:12:40;100835.76;;;26.65;55.52
74790;BME280;63318;52.406;13.416;2023-09-12T08:15:09;100844.39;;;26.82;55.11
74790;BME280;63318;52.406;13.416;2023-09-12T08:17:38;100844.19;;;26.99;55.20
74790;BME280;63318;52.406;13.416;2023-09-12T08:20:08;100835.48;;;27.15;54.70
74790;BME280;63318;52.406;13.416;2023-09-12T08:22:36;100834.29;;;27.33;54.22
74790;BME280;63318;52.406;13.416;2023-09-12T08:25:05;100831.36;;;27.49;53.81
74790;BME280;63318;52.406;13.416;2023-09-12T08:27:34;100827.88;;;27.69;53.08
74790;BME280;63318;52.406;13.416;2023-09-12T08:30:02;100830.56;;;27.86;52.18
74790;BME280;63318;52.406;13.416;2023-09-12T08:32:30;100835.30;;;28.04;51.49
74790;BME280;63318;52.406;13.416;2023-09-12T08:34:58;100833.88;;;28.22;52.05
74790;BME280;63318;52.406;13.416;2023-09-12T08:37:27;100829.31;;;28.38;51.27
74790;BME280;63318;52.406;13.416;2023-09-12T08:39:55;100831.86;;;28.54;50.90
74790;BME280;63318;52.406;13.416;2023-09-12T08:42:23;100835.85;;;28.67;50.86
74790;BME280;63318;52.406;13.416;2023-09-12T08:44:53;100832.13;;;28.81;50.66
74790;BME280;63318;52.406;13.416;2023-09-12T08:47:23;100832.60;;;28.98;50.35
74790;BME280;63318;52.406;13.416;2023-09-12T08:49:52;100828.86;;;29.12;49.81
74790;BME280;63318;52.406;13.416;2023-09-12T08:52:22;100832.19;;;29.27;49.99
74790;BME280;63318;52.406;13.416;2023-09-12T08:54:50;100834.75;;;29.43;48.68
74790;BME280;63318;52.406;13.416;2023-09-12T08:57:19;100838.03;;;29.59;48.66
74790;BME280;63318;52.406;13.416;2023-09-12T08:59:47;100839.70;;;29.75;49.02
74790;BME280;63318;52.406;13.416;2023-09-12T09:02:17;100837.23;;;29.88;48.60
74790;BME280;63318;52.406;13.416;2023-09-12T09:04:47;100839.75;;;30.02;48.13
74790;BME280;63318;52.406;13.416;2023-09-12T09:07:15;100844.23;;;30.17;47.08
74790;BME280;63318;52.406;13.416;2023-09-12T09:09:45;100845.90;;;30.30;47.00
74790;BME280;63318;52.406;13.416;2023-09-12T09:12:14;100851.05;;;30.48;47.57
74790;BME280;63318;52.406;13.416;2023-09-12T09:14:42;100850.09;;;30.63;47.71
74790;BME280;63318;52.406;13.416;2023-09-12T09:17:10;100849.27;;;30.75;47.35
74790;BME280;63318;52.406;13.416;2023-09-12T09:19:46;100848.24;;;30.88;47.52
74790;BME280;63318;52.406;13.416;2023-09-12T09:22:14;100847.69;;;30.99;46.91
74790;BME280;63318;52.406;13.416;2023-09-12T09:24:42;100847.92;;;31.11;46.08
74790;BME280;63318;52.406;13.416;2023-09-12T09:27:10;100852.02;;;31.24;45.79
74790;BME280;63318;52.406;13.416;2023-09-12T09:29:48;100850.44;;;31.36;45.41
74790;BME280;63318;52.406;13.416;2023-09-12T09:32:19;100850.61;;;31.49;45.93
74790;BME280;63318;52.406;13.416;2023-09-12T09:34:47;100857.89;;;31.60;45.72
74790;BME280;63318;52.406;13.416;2023-09-12T09:37:16;100853.11;;;31.70;45.53
74790;BME280;63318;52.406;13.416;2023-09-12T09:39:45;100856.36;;;31.80;45.20
74790;BME280;63318;52.406;13.416;2023-09-12T09:42:13;100857.21;;;31.91;45.01
74790;BME280;63318;52.406;13.416;2023-09-12T09:44:41;100857.29;;;31.98;44.28
74790;BME280;63318;52.406;13.416;2023-09-12T09:47:10;100857.36;;;32.05;44.19
74790;BME280;63318;52.406;13.416;2023-09-12T09:49:38;100857.34;;;32.08;44.43
74790;BME280;63318;52.406;13.416;2023-09-12T09:52:07;100859.88;;;32.11;44.18
74790;BME280;63318;52.406;13.416;2023-09-12T09:54:35;100856.82;;;32.13;43.53
74790;BME280;63318;52.406;13.416;2023-09-12T09:57:10;100854.02;;;32.15;43.76
74790;BME280;63318;52.406;13.416;2023-09-12T09:59:38;100855.73;;;32.19;43.37
74790;BME280;63318;52.406;13.416;2023-09-12T10:02:10;100853.59;;;32.19;43.18
74790;BME280;63318;52.406;13.416;2023-09-12T10:04:44;100859.82;;;32.24;43.94
74790;BME280;63318;52.406;13.416;2023-09-12T10:07:13;100854.88;;;32.26;43.85
74790;BME280;63318;52.406;13.416;2023-09-12T10:09:43;100853.73;;;32.23;43.95
74790;BME280;63318;52.406;13.416;2023-09-12T10:12:12;100854.98;;;32.21;43.90
74790;BME280;63318;52.406;13.416;2023-09-12T10:14:41;100855.56;;;32.18;43.34
74790;BME280;63318;52.406;13.416;2023-09-12T10:17:13;100854.18;;;32.14;43.04
74790;BME280;63318;52.406;13.416;2023-09-12T10:19:51;100854.63;;;32.08;43.32
74790;BME280;63318;52.406;13.416;2023-09-12T10:22:25;100845.70;;;31.99;43.33
74790;BME280;63318;52.406;13.416;2023-09-12T10:24:57;100838.71;;;31.95;43.54
74790;BME280;63318;52.406;13.416;2023-09-12T10:27:25;100834.38;;;31.97;44.11
74790;BME280;63318;52.406;13.416;2023-09-12T10:29:55;100832.33;;;31.97;43.37
74790;BME280;63318;52.406;13.416;2023-09-12T10:32:24;100833.39;;;31.95;43.94
74790;BME280;63318;52.406;13.416;2023-09-12T10:34:53;100831.08;;;31.95;43.83
74790;BME280;63318;52.406;13.416;2023-09-12T10:37:23;100828.38;;;32.01;43.47
74790;BME280;63318;52.406;13.416;2023-09-12T10:39:54;100822.83;;;32.09;43.07
74790;BME280;63318;52.406;13.416;2023-09-12T10:42:25;100821.39;;;32.15;42.96
74790;BME280;63318;52.406;13.416;2023-09-12T10:44:55;100825.17;;;32.17;42.79
74790;BME280;63318;52.406;13.416;2023-09-12T10:47:25;100828.83;;;32.22;42.67
74790;BME280;63318;52.406;13.416;2023-09-12T10:49:54;100825.14;;;32.24;42.73
74790;BME280;63318;52.406;13.416;2023-09-12T10:52:29;100824.60;;;32.31;42.98
74790;BME280;63318;52.406;13.416;2023-09-12T10:55:02;100828.19;;;32.36;42.56
74790;BME280;63318;52.406;13.416;2023-09-12T10:57:32;100825.69;;;32.42;42.00
74790;BME280;63318;52.406;13.416;2023-09-12T11:00:15;100824.58;;;32.50;42.08
74790;BME280;63318;52.406;13.416;2023-09-12T11:02:43;100824.45;;;32.58;41.05
74790;BME280;63318;52.406;13.416;2023-09-12T11:05:38;100821.46;;;32.62;40.86
74790;BME280;63318;52.406;13.416;2023-09-12T11:08:18;100821.93;;;32.65;40.83
74790;BME280;63318;52.406;13.416;2023-09-12T11:10:46;100819.93;;;32.68;41.36
74790;BME280;63318;52.406;13.416;2023-09-12T11:13:39;100817.80;;;32.69;41.31
74790;BME280;63318;52.406;13.416;2023-09-12T11:16:16;100816.95;;;32.71;41.33
74790;BME280;63318;52.406;13.416;2023-09-12T11:19:16;100818.06;;;32.75;40.90
74790;BME280;63318;52.406;13.416;2023-09-12T11:21:47;100815.32;;;32.80;40.76
74790;BME280;63318;52.406;13.416;2023-09-12T11:24:16;100809.45;;;32.83;41.43
74790;BME280;63318;52.406;13.416;2023-09-12T11:26:56;100810.52;;;32.82;41.12
74790;BME280;63318;52.406;13.416;2023-09-12T11:29:28;100811.48;;;32.76;41.57
74790;BME280;63318;52.406;13.416;2023-09-12T11:31:58;100809.31;;;32.69;40.71
74790;BME280;63318;52.406;13.416;2023-09-12T11:34:41;100807.77;;;32.67;41.56
74790;BME280;63318;52.406;13.416;2023-09-12T11:37:10;100807.03;;;32.68;41.64
74790;BME280;63318;52.406;13.416;2023-09-12T11:39:50;100807.27;;;32.69;41.33
74790;BME280;63318;52.406;13.416;2023-09-12T11:42:18;100806.20;;;32.69;41.44
74790;BME280;63318;52.406;13.416;2023-09-12T11:44:47;100807.48;;;32.71;41.15
74790;BME280;63318;52.406;13.416;2023-09-12T11:47:16;100806.02;;;32.72;39.90
74790;BME280;63318;52.406;13.416;2023-09-12T11:49:44;100806.02;;;32.73;40.72
74790;BME280;63318;52.406;13.416;2023-09-12T11:52:13;100805.20;;;32.71;40.38
74790;BME280;63318;52.406;13.416;2023-09-12T11:54:42;100801.51;;;32.69;40.15
74790;BME280;63318;52.406;13.416;2023-09-12T11:57:13;100800.62;;;32.68;39.90
74790;BME280;63318;52.406;13.416;2023-09-12T11:59:43;100802.17;;;32.69;40.21
74790;BME280;63318;52.406;13.416;2023-09-12T12:02:12;100796.79;;;32.71;40.51
74790;BME280;63318;52.406;13.416;2023-09-12T12:04:40;100796.52;;;32.76;40.93
74790;BME280;63318;52.406;13.416;2023-09-12T12:07:09;100791.89;;;32.79;40.54
74790;BME280;63318;52.406;13.416;2023-09-12T12:09:38;100793.59;;;32.80;40.68
74790;BME280;63318;52.406;13.416;2023-09-12T12:12:10;100795.97;;;32.82;41.22
74790;BME280;63318;52.406;13.416;2023-09-12T12:14:40;100795.58;;;32.82;41.48
74790;BME280;63318;52.406;13.416;2023-09-12T12:17:10;100801.30;;;32.82;41.72
74790;BME280;63318;52.406;13.416;2023-09-12T12:19:39;100801.14;;;32.83;41.62
74790;BME280;63318;52.406;13.416;2023-09-12T12:22:08;100803.89;;;32.79;41.34
74790;BME280;63318;52.406;13.416;2023-09-12T12:24:40;100805.20;;;32.71;41.05
74790;BME280;63318;52.406;13.416;2023-09-12T12:27:09;100803.89;;;32.69;41.24
74790;BME280;63318;52.406;13.416;2023-09-12T12:29:37;100807.11;;;32.67;41.13
74790;BME280;63318;52.406;13.416;2023-09-12T12:32:06;100808.44;;;32.65;40.95
74790;BME280;63318;52.406;13.416;2023-09-12T12:34:35;100808.45;;;32.64;41.30
74790;BME280;63318;52.406;13.416;2023-09-12T12:37:04;100804.59;;;32.63;40.93
74790;BME280;63318;52.406;13.416;2023-09-12T12:39:33;100799.11;;;32.60;40.56
74790;BME280;63318;52.406;13.416;2023-09-12T12:42:01;100800.17;;;32.60;40.93
74790;BME280;63318;52.406;13.416;2023-09-12T12:44:35;100796.96;;;32.61;41.16
74790;BME280;63318;52.406;13.416;2023-09-12T12:47:05;100794.45;;;32.57;40.55
74790;BME280;63318;52.406;13.416;2023-09-12T12:49:37;100789.77;;;32.54;40.50
74790;BME280;63318;52.406;13.416;2023-09-12T12:52:06;100789.71;;;32.54;40.90